sensor_id;sensor_type;location;lat;lon;timestamp;P1;durP1;ratioP1;P2;durP2;ratioP2
49840;SDS011;35738;49.890;5.930;2024-01-30T00:00:46;18.25;;;11.82;;
49840;SDS011;35738;49.890;5.930;2024-01-30T00:03:13;17.83;;;10.45;;
49840;SDS011;35738;49.890;5.930;2024-01-30T00:05:39;19.48;;;12.07;;
49840;SDS011;35738;49.890;5.930;2024-01-30T00:08:06;20.73;;;12.57;;
49840;SDS011;35738;49.890;5.930;2024-01-30T00:10:32;19.63;;;13.27;;
49840;SDS011;35738;49.890;5.930;2024-01-30T00:12:59;18.48;;;12.02;;
49840;SDS011;35738;49.890;5.930;2024-01-30T00:15:25;22.45;;;12.70;;
49840;SDS011;35738;49.890;5.930;2024-01-30T00:17:52;23.80;;;13.35;;
49840;SDS011;35738;49.890;5.930;2024-01-30T00:20:20;22.85;;;13.77;;
49840;SDS011;35738;49.890;5.930;2024-01-30T00:22:47;19.35;;;12.48;;
49840;SDS011;35738;49.890;5.930;2024-01-30T00:25:13;19.88;;;13.13;;
49840;SDS011;35738;49.890;5.930;2024-01-30T00:27:40;23.08;;;14.82;;
49840;SDS011;35738;49.890;5.930;2024-01-30T00:30:07;24.50;;;15.10;;
49840;SDS011;35738;49.890;5.930;2024-01-30T00:32:34;21.23;;;12.88;;
49840;SDS011;35738;49.890;5.930;2024-01-30T00:35:01;20.23;;;14.27;;
49840;SDS011;35738;49.890;5.930;2024-01-30T00:37:28;20.98;;;14.20;;
49840;SDS011;35738;49.890;5.930;2024-01-30T00:39:54;20.52;;;13.60;;
49840;SDS011;35738;49.890;5.930;2024-01-30T00:42:21;22.13;;;13.43;;
49840;SDS011;35738;49.890;5.930;2024-01-30T00:44:49;19.35;;;12.45;;
49840;SDS011;35738;49.890;5.930;2024-01-30T00:47:16;21.13;;;13.48;;
49840;SDS011;35738;49.890;5.930;2024-01-30T00:49:43;21.35;;;13.25;;
49840;SDS011;35738;49.890;5.930;2024-01-30T00:52:09;20.52;;;13.00;;
49840;SDS011;35738;49.890;5.930;2024-01-30T00:54:36;20.00;;;13.32;;
49840;SDS011;35738;49.890;5.930;2024-01-30T00:57:03;22.30;;;13.82;;
49840;SDS011;35738;49.890;5.930;2024-01-30T00:59:29;20.50;;;13.00;;
49840;SDS011;35738;49.890;5.930;2024-01-30T01:01:56;22.83;;;14.65;;
49840;SDS011;35738;49.890;5.930;2024-01-30T01:04:22;23.73;;;13.95;;
49840;SDS011;35738;49.890;5.930;2024-01-30T01:06:49;24.02;;;13.55;;
49840;SDS011;35738;49.890;5.930;2024-01-30T01:09:16;25.35;;;14.80;;
49840;SDS011;35738;49.890;5.930;2024-01-30T01:11:43;21.05;;;12.95;;
49840;SDS011;35738;49.890;5.930;2024-01-30T01:14:09;20.00;;;13.23;;
49840;SDS011;35738;49.890;5.930;2024-01-30T01:16:36;23.25;;;14.18;;
49840;SDS011;35738;49.890;5.930;2024-01-30T01:19:03;19.27;;;12.88;;
49840;SDS011;35738;49.890;5.930;2024-01-30T01:21:30;22.15;;;13.05;;
49840;SDS011;35738;49.890;5.930;2024-01-30T01:23:57;21.33;;;13.85;;
49840;SDS011;35738;49.890;5.930;2024-01-30T01:26:24;21.58;;;14.10;;
49840;SDS011;35738;49.890;5.930;2024-01-30T01:28:50;25.40;;;14.38;;
49840;SDS011;35738;49.890;5.930;2024-01-30T01:31:17;20.95;;;14.35;;
49840;SDS011;35738;49.890;5.930;2024-01-30T01:33:44;25.88;;;14.05;;
49840;SDS011;35738;49.890;5.930;2024-01-30T01:36:13;22.02;;;13.27;;
49840;SDS011;35738;49.890;5.930;2024-01-30T01:38:40;21.23;;;12.82;;
49840;SDS011;35738;49.890;5.930;2024-01-30T01:41:06;20.45;;;12.80;;
49840;SDS011;35738;49.890;5.930;2024-01-30T01:43:33;23.83;;;12.45;;
49840;SDS011;35738;49.890;5.930;2024-01-30T01:45:59;20.83;;;11.43;;
49840;SDS011;35738;49.890;5.930;2024-01-30T01:48:26;19.65;;;12.10;;
49840;SDS011;35738;49.890;5.930;2024-01-30T01:50:53;16.65;;;11.63;;
49840;SDS011;35738;49.890;5.930;2024-01-30T01:53:20;17.63;;;11.43;;
49840;SDS011;35738;49.890;5.930;2024-01-30T01:55:47;20.70;;;12.25;;
49840;SDS011;35738;49.890;5.930;2024-01-30T01:58:14;18.35;;;11.75;;
49840;SDS011;35738;49.890;5.930;2024-01-30T02:00:41;19.92;;;11.93;;
49840;SDS011;35738;49.890;5.930;2024-01-30T02:03:10;23.25;;;12.68;;
49840;SDS011;35738;49.890;5.930;2024-01-30T02:05:38;17.30;;;11.77;;
49840;SDS011;35738;49.890;5.930;2024-01-30T02:08:07;22.70;;;12.25;;
49840;SDS011;35738;49.890;5.930;2024-01-30T02:10:35;22.20;;;12.43;;
49840;SDS011;35738;49.890;5.930;2024-01-30T02:13:01;22.05;;;13.35;;
49840;SDS011;35738;49.890;5.930;2024-01-30T02:15:31;19.17;;;12.70;;
49840;SDS011;35738;49.890;5.930;2024-01-30T02:17:57;21.58;;;12.82;;
49840;SDS011;35738;49.890;5.930;2024-01-30T02:20:24;22.30;;;13.32;;
49840;SDS011;35738;49.890;5.930;2024-01-30T02:22:52;21.17;;;13.52;;
49840;SDS011;35738;49.890;5.930;2024-01-30T02:25:20;18.98;;;13.20;;
49840;SDS011;35738;49.890;5.930;2024-01-30T02:27:57;24.70;;;13.18;;
49840;SDS011;35738;49.890;5.930;2024-01-30T02:30:24;21.45;;;13.82;;
49840;SDS011;35738;49.890;5.930;2024-01-30T02:32:50;23.63;;;13.98;;
49840;SDS011;35738;49.890;5.930;2024-01-30T02:35:17;24.08;;;14.45;;
49840;SDS011;35738;49.890;5.930;2024-01-30T02:37:44;21.05;;;13.30;;
49840;SDS011;35738;49.890;5.930;2024-01-30T02:40:10;25.30;;;13.45;;
49840;SDS011;35738;49.890;5.930;2024-01-30T02:42:37;20.70;;;13.05;;
49840;SDS011;35738;49.890;5.930;2024-01-30T02:45:03;24.98;;;13.50;;
49840;SDS011;35738;49.890;5.930;2024-01-30T02:47:30;18.63;;;11.88;;
49840;SDS011;35738;49.890;5.930;2024-01-30T02:49:57;21.02;;;11.57;;
49840;SDS011;35738;49.890;5.930;2024-01-30T02:52:23;21.02;;;11.57;;
49840;SDS011;35738;49.890;5.930;2024-01-30T02:54:50;19.75;;;12.45;;
49840;SDS011;35738;49.890;5.930;2024-01-30T02:57:16;18.27;;;12.20;;
49840;SDS011;35738;49.890;5.930;2024-01-30T02:59:43;24.02;;;11.93;;
49840;SDS011;35738;49.890;5.930;2024-01-30T03:02:09;19.38;;;11.48;;
49840;SDS011;35738;49.890;5.930;2024-01-30T03:04:36;17.80;;;11.48;;
49840;SDS011;35738;49.890;5.930;2024-01-30T03:07:03;22.52;;;11.55;;
49840;SDS011;35738;49.890;5.930;2024-01-30T03:09:30;15.23;;;11.38;;
49840;SDS011;35738;49.890;5.930;2024-01-30T03:11:57;20.77;;;11.57;;
49840;SDS011;35738;49.890;5.930;2024-01-30T03:14:23;15.55;;;11.30;;
49840;SDS011;35738;49.890;5.930;2024-01-30T03:16:50;18.15;;;11.73;;
49840;SDS011;35738;49.890;5.930;2024-01-30T03:19:16;20.15;;;12.77;;
49840;SDS011;35738;49.890;5.930;2024-01-30T03:21:43;16.40;;;11.77;;
49840;SDS011;35738;49.890;5.930;2024-01-30T03:24:09;17.10;;;11.63;;
49840;SDS011;35738;49.890;5.930;2024-01-30T03:26:36;19.08;;;11.85;;
49840;SDS011;35738;49.890;5.930;2024-01-30T03:29:03;19.80;;;12.45;;
49840;SDS011;35738;49.890;5.930;2024-01-30T03:31:30;19.98;;;12.40;;
49840;SDS011;35738;49.890;5.930;2024-01-30T03:33:57;18.42;;;12.82;;
49840;SDS011;35738;49.890;5.930;2024-01-30T03:36:23;21.38;;;13.38;;
49840;SDS011;35738;49.890;5.930;2024-01-30T03:38:50;24.70;;;15.02;;
49840;SDS011;35738;49.890;5.930;2024-01-30T03:41:17;22.67;;;14.38;;
49840;SDS011;35738;49.890;5.930;2024-01-30T03:43:43;25.00;;;15.73;;
49840;SDS011;35738;49.890;5.930;2024-01-30T03:46:11;24.52;;;15.68;;
49840;SDS011;35738;49.890;5.930;2024-01-30T03:48:38;21.83;;;13.77;;
49840;SDS011;35738;49.890;5.930;2024-01-30T03:51:05;27.73;;;17.23;;
49840;SDS011;35738;49.890;5.930;2024-01-30T03:53:32;26.85;;;16.25;;
49840;SDS011;35738;49.890;5.930;2024-01-30T03:55:58;26.60;;;16.25;;
49840;SDS011;35738;49.890;5.930;2024-01-30T03:58:25;28.10;;;15.93;;
49840;SDS011;35738;49.890;5.930;2024-01-30T04:00:51;23.80;;;15.00;;
49840;SDS011;35738;49.890;5.930;2024-01-30T04:03:18;26.35;;;16.88;;
49840;SDS011;35738;49.890;5.930;2024-01-30T04:05:44;29.98;;;16.40;;
49840;SDS011;35738;49.890;5.930;2024-01-30T04:08:11;29.20;;;17.83;;
49840;SDS011;35738;49.890;5.930;2024-01-30T04:10:37;27.02;;;17.23;;
49840;SDS011;35738;49.890;5.930;2024-01-30T04:13:04;26.30;;;16.67;;
49840;SDS011;35738;49.890;5.930;2024-01-30T04:15:33;28.60;;;17.20;;
49840;SDS011;35738;49.890;5.930;2024-01-30T04:17:59;27.00;;;16.30;;
49840;SDS011;35738;49.890;5.930;2024-01-30T04:20:26;24.77;;;15.63;;
49840;SDS011;35738;49.890;5.930;2024-01-30T04:22:53;23.63;;;15.30;;
49840;SDS011;35738;49.890;5.930;2024-01-30T04:25:19;24.25;;;15.35;;
49840;SDS011;35738;49.890;5.930;2024-01-30T04:27:46;23.48;;;14.82;;
49840;SDS011;35738;49.890;5.930;2024-01-30T04:30:13;26.90;;;17.02;;
49840;SDS011;35738;49.890;5.930;2024-01-30T04:32:40;30.85;;;17.45;;
49840;SDS011;35738;49.890;5.930;2024-01-30T04:35:07;31.15;;;19.00;;
49840;SDS011;35738;49.890;5.930;2024-01-30T04:37:37;30.10;;;18.73;;
49840;SDS011;35738;49.890;5.930;2024-01-30T04:40:03;31.35;;;19.48;;
49840;SDS011;35738;49.890;5.930;2024-01-30T04:42:31;35.28;;;19.45;;
49840;SDS011;35738;49.890;5.930;2024-01-30T04:44:58;32.80;;;19.55;;
49840;SDS011;35738;49.890;5.930;2024-01-30T04:47:24;31.45;;;19.20;;
49840;SDS011;35738;49.890;5.930;2024-01-30T04:49:51;33.28;;;20.58;;
49840;SDS011;35738;49.890;5.930;2024-01-30T04:52:18;39.00;;;20.67;;
49840;SDS011;35738;49.890;5.930;2024-01-30T04:54:45;35.80;;;20.27;;
49840;SDS011;35738;49.890;5.930;2024-01-30T04:57:12;36.25;;;20.88;;
49840;SDS011;35738;49.890;5.930;2024-01-30T04:59:38;33.80;;;21.08;;
49840;SDS011;35738;49.890;5.930;2024-01-30T05:02:05;38.15;;;20.70;;
49840;SDS011;35738;49.890;5.930;2024-01-30T05:04:32;35.33;;;21.50;;
49840;SDS011;35738;49.890;5.930;2024-01-30T05:06:59;41.45;;;23.13;;
49840;SDS011;35738;49.890;5.930;2024-01-30T05:09:26;38.90;;;22.77;;
49840;SDS011;35738;49.890;5.930;2024-01-30T05:11:52;42.83;;;23.27;;
49840;SDS011;35738;49.890;5.930;2024-01-30T05:14:19;39.10;;;21.92;;
49840;SDS011;35738;49.890;5.930;2024-01-30T05:16:46;34.92;;;21.95;;
49840;SDS011;35738;49.890;5.930;2024-01-30T05:19:13;36.45;;;21.73;;
49840;SDS011;35738;49.890;5.930;2024-01-30T05:21:40;33.30;;;20.85;;
49840;SDS011;35738;49.890;5.930;2024-01-30T05:24:08;39.78;;;22.08;;
49840;SDS011;35738;49.890;5.930;2024-01-30T05:26:36;31.17;;;19.55;;
49840;SDS011;35738;49.890;5.930;2024-01-30T05:29:02;32.20;;;19.08;;
49840;SDS011;35738;49.890;5.930;2024-01-30T05:31:29;32.10;;;18.65;;
49840;SDS011;35738;49.890;5.930;2024-01-30T05:33:56;33.88;;;19.17;;
49840;SDS011;35738;49.890;5.930;2024-01-30T05:36:23;33.67;;;18.30;;
49840;SDS011;35738;49.890;5.930;2024-01-30T05:38:49;32.13;;;18.08;;
49840;SDS011;35738;49.890;5.930;2024-01-30T05:41:16;32.92;;;17.85;;
49840;SDS011;35738;49.890;5.930;2024-01-30T05:43:42;27.52;;;17.52;;
49840;SDS011;35738;49.890;5.930;2024-01-30T05:46:09;32.95;;;18.38;;
49840;SDS011;35738;49.890;5.930;2024-01-30T05:48:36;30.23;;;16.17;;
49840;SDS011;35738;49.890;5.930;2024-01-30T05:51:02;23.63;;;15.38;;
49840;SDS011;35738;49.890;5.930;2024-01-30T05:53:30;24.98;;;14.88;;
49840;SDS011;35738;49.890;5.930;2024-01-30T05:55:57;29.08;;;16.80;;
49840;SDS011;35738;49.890;5.930;2024-01-30T05:58:23;26.08;;;16.05;;
49840;SDS011;35738;49.890;5.930;2024-01-30T06:00:50;28.33;;;16.63;;
49840;SDS011;35738;49.890;5.930;2024-01-30T06:03:17;26.83;;;16.73;;
49840;SDS011;35738;49.890;5.930;2024-01-30T06:05:43;28.42;;;15.82;;
49840;SDS011;35738;49.890;5.930;2024-01-30T06:08:10;25.17;;;15.95;;
49840;SDS011;35738;49.890;5.930;2024-01-30T06:10:36;25.10;;;15.70;;
49840;SDS011;35738;49.890;5.930;2024-01-30T06:13:03;24.77;;;15.43;;
49840;SDS011;35738;49.890;5.930;2024-01-30T06:15:30;27.80;;;16.20;;
49840;SDS011;35738;49.890;5.930;2024-01-30T06:17:56;28.33;;;16.45;;
49840;SDS011;35738;49.890;5.930;2024-01-30T06:20:23;29.13;;;17.85;;
49840;SDS011;35738;49.890;5.930;2024-01-30T06:22:50;26.48;;;16.98;;
49840;SDS011;35738;49.890;5.930;2024-01-30T06:25:16;29.52;;;18.38;;
49840;SDS011;35738;49.890;5.930;2024-01-30T06:27:43;26.67;;;15.93;;
49840;SDS011;35738;49.890;5.930;2024-01-30T06:30:10;23.63;;;14.57;;
49840;SDS011;35738;49.890;5.930;2024-01-30T06:32:37;24.73;;;14.98;;
49840;SDS011;35738;49.890;5.930;2024-01-30T06:35:04;26.05;;;16.35;;
49840;SDS011;35738;49.890;5.930;2024-01-30T06:37:32;24.17;;;15.38;;
49840;SDS011;35738;49.890;5.930;2024-01-30T06:39:58;24.40;;;14.13;;
49840;SDS011;35738;49.890;5.930;2024-01-30T06:42:25;25.38;;;15.27;;
49840;SDS011;35738;49.890;5.930;2024-01-30T06:44:52;24.17;;;15.70;;
49840;SDS011;35738;49.890;5.930;2024-01-30T06:47:18;25.55;;;15.00;;
49840;SDS011;35738;49.890;5.930;2024-01-30T06:49:45;26.48;;;15.43;;
49840;SDS011;35738;49.890;5.930;2024-01-30T06:52:11;27.33;;;15.40;;
49840;SDS011;35738;49.890;5.930;2024-01-30T06:54:38;29.02;;;16.38;;
49840;SDS011;35738;49.890;5.930;2024-01-30T06:57:06;27.92;;;15.63;;
49840;SDS011;35738;49.890;5.930;2024-01-30T06:59:37;27.13;;;15.52;;
49840;SDS011;35738;49.890;5.930;2024-01-30T07:02:09;22.63;;;14.40;;
49840;SDS011;35738;49.890;5.930;2024-01-30T07:04:37;27.98;;;15.52;;
49840;SDS011;35738;49.890;5.930;2024-01-30T07:07:05;21.75;;;14.20;;
49840;SDS011;35738;49.890;5.930;2024-01-30T07:09:38;22.00;;;14.02;;
49840;SDS011;35738;49.890;5.930;2024-01-30T07:12:05;26.65;;;15.02;;
49840;SDS011;35738;49.890;5.930;2024-01-30T07:14:32;20.63;;;13.55;;
49840;SDS011;35738;49.890;5.930;2024-01-30T07:16:59;23.95;;;15.30;;
49840;SDS011;35738;49.890;5.930;2024-01-30T07:19:26;22.70;;;13.73;;
49840;SDS011;35738;49.890;5.930;2024-01-30T07:21:52;23.88;;;14.48;;
49840;SDS011;35738;49.890;5.930;2024-01-30T07:24:19;26.75;;;15.15;;
49840;SDS011;35738;49.890;5.930;2024-01-30T07:26:45;21.52;;;13.70;;
49840;SDS011;35738;49.890;5.930;2024-01-30T07:29:12;21.75;;;14.02;;
49840;SDS011;35738;49.890;5.930;2024-01-30T07:31:39;27.63;;;14.32;;
49840;SDS011;35738;49.890;5.930;2024-01-30T07:34:06;23.65;;;14.50;;
49840;SDS011;35738;49.890;5.930;2024-01-30T07:36:33;25.92;;;14.48;;
49840;SDS011;35738;49.890;5.930;2024-01-30T07:38:59;25.95;;;15.43;;
49840;SDS011;35738;49.890;5.930;2024-01-30T07:41:26;21.08;;;14.35;;
49840;SDS011;35738;49.890;5.930;2024-01-30T07:43:53;20.80;;;13.80;;
49840;SDS011;35738;49.890;5.930;2024-01-30T07:46:20;24.58;;;14.32;;
49840;SDS011;35738;49.890;5.930;2024-01-30T07:48:46;24.25;;;14.60;;
49840;SDS011;35738;49.890;5.930;2024-01-30T07:51:13;26.73;;;14.52;;
49840;SDS011;35738;49.890;5.930;2024-01-30T07:53:39;20.67;;;13.20;;
49840;SDS011;35738;49.890;5.930;2024-01-30T07:56:06;22.52;;;13.75;;
49840;SDS011;35738;49.890;5.930;2024-01-30T07:58:32;23.52;;;13.77;;
49840;SDS011;35738;49.890;5.930;2024-01-30T08:00:59;23.38;;;13.65;;
49840;SDS011;35738;49.890;5.930;2024-01-30T08:03:27;23.92;;;14.02;;
49840;SDS011;35738;49.890;5.930;2024-01-30T08:05:53;19.85;;;12.88;;
49840;SDS011;35738;49.890;5.930;2024-01-30T08:08:20;21.15;;;11.95;;
49840;SDS011;35738;49.890;5.930;2024-01-30T08:10:47;18.17;;;11.88;;
49840;SDS011;35738;49.890;5.930;2024-01-30T08:13:14;20.77;;;12.02;;
49840;SDS011;35738;49.890;5.930;2024-01-30T08:15:41;17.45;;;11.60;;
49840;SDS011;35738;49.890;5.930;2024-01-30T08:18:07;19.23;;;11.32;;
49840;SDS011;35738;49.890;5.930;2024-01-30T08:20:34;16.08;;;11.15;;
49840;SDS011;35738;49.890;5.930;2024-01-30T08:23:01;18.30;;;11.52;;
49840;SDS011;35738;49.890;5.930;2024-01-30T08:25:27;17.73;;;10.82;;
49840;SDS011;35738;49.890;5.930;2024-01-30T08:27:54;17.88;;;10.73;;
49840;SDS011;35738;49.890;5.930;2024-01-30T08:30:20;16.35;;;10.32;;
49840;SDS011;35738;49.890;5.930;2024-01-30T08:32:47;20.23;;;10.52;;
49840;SDS011;35738;49.890;5.930;2024-01-30T08:35:13;13.70;;;9.52;;
49840;SDS011;35738;49.890;5.930;2024-01-30T08:37:42;14.35;;;10.13;;
49840;SDS011;35738;49.890;5.930;2024-01-30T08:40:09;16.23;;;10.52;;
49840;SDS011;35738;49.890;5.930;2024-01-30T08:42:36;15.25;;;9.75;;
49840;SDS011;35738;49.890;5.930;2024-01-30T08:45:03;12.77;;;10.18;;
49840;SDS011;35738;49.890;5.930;2024-01-30T08:47:31;16.58;;;10.13;;
49840;SDS011;35738;49.890;5.930;2024-01-30T08:49:57;16.67;;;9.52;;
49840;SDS011;35738;49.890;5.930;2024-01-30T08:52:24;15.48;;;9.85;;
49840;SDS011;35738;49.890;5.930;2024-01-30T08:54:51;15.07;;;10.00;;
49840;SDS011;35738;49.890;5.930;2024-01-30T08:57:17;17.63;;;10.10;;
49840;SDS011;35738;49.890;5.930;2024-01-30T08:59:44;17.25;;;10.25;;
49840;SDS011;35738;49.890;5.930;2024-01-30T09:02:13;15.07;;;10.45;;
49840;SDS011;35738;49.890;5.930;2024-01-30T09:04:42;15.75;;;10.27;;
49840;SDS011;35738;49.890;5.930;2024-01-30T09:07:09;17.73;;;10.98;;
49840;SDS011;35738;49.890;5.930;2024-01-30T09:09:40;16.52;;;10.52;;
49840;SDS011;35738;49.890;5.930;2024-01-30T09:12:07;15.40;;;10.75;;
49840;SDS011;35738;49.890;5.930;2024-01-30T09:14:36;13.68;;;10.68;;
49840;SDS011;35738;49.890;5.930;2024-01-30T09:17:03;17.48;;;10.80;;
49840;SDS011;35738;49.890;5.930;2024-01-30T09:19:30;18.50;;;11.20;;
49840;SDS011;35738;49.890;5.930;2024-01-30T09:21:57;16.77;;;10.45;;
49840;SDS011;35738;49.890;5.930;2024-01-30T09:24:25;15.80;;;10.18;;
49840;SDS011;35738;49.890;5.930;2024-01-30T09:26:52;13.48;;;9.32;;
49840;SDS011;35738;49.890;5.930;2024-01-30T09:29:19;13.65;;;9.10;;
49840;SDS011;35738;49.890;5.930;2024-01-30T09:31:45;13.27;;;9.77;;
49840;SDS011;35738;49.890;5.930;2024-01-30T09:34:12;13.65;;;9.60;;
49840;SDS011;35738;49.890;5.930;2024-01-30T09:36:40;13.38;;;9.32;;
49840;SDS011;35738;49.890;5.930;2024-01-30T09:39:06;13.38;;;9.52;;
49840;SDS011;35738;49.890;5.930;2024-01-30T09:41:33;15.38;;;9.55;;
49840;SDS011;35738;49.890;5.930;2024-01-30T09:44:11;14.48;;;9.27;;
49840;SDS011;35738;49.890;5.930;2024-01-30T09:46:39;14.30;;;9.95;;
49840;SDS011;35738;49.890;5.930;2024-01-30T09:49:06;14.55;;;9.43;;
49840;SDS011;35738;49.890;5.930;2024-01-30T09:51:35;14.00;;;9.13;;
49840;SDS011;35738;49.890;5.930;2024-01-30T09:54:02;16.35;;;9.38;;
49840;SDS011;35738;49.890;5.930;2024-01-30T09:56:29;15.63;;;9.70;;
49840;SDS011;35738;49.890;5.930;2024-01-30T09:58:55;13.63;;;8.55;;
49840;SDS011;35738;49.890;5.930;2024-01-30T10:01:22;14.02;;;8.77;;
49840;SDS011;35738;49.890;5.930;2024-01-30T10:03:50;12.70;;;8.15;;
49840;SDS011;35738;49.890;5.930;2024-01-30T10:06:19;13.35;;;8.75;;
49840;SDS011;35738;49.890;5.930;2024-01-30T10:08:49;13.10;;;8.75;;
49840;SDS011;35738;49.890;5.930;2024-01-30T10:11:15;13.95;;;8.93;;
49840;SDS011;35738;49.890;5.930;2024-01-30T10:13:42;13.05;;;8.75;;
49840;SDS011;35738;49.890;5.930;2024-01-30T10:16:08;11.57;;;8.23;;
49840;SDS011;35738;49.890;5.930;2024-01-30T10:18:35;12.55;;;8.57;;
49840;SDS011;35738;49.890;5.930;2024-01-30T10:21:01;13.45;;;8.90;;
49840;SDS011;35738;49.890;5.930;2024-01-30T10:23:29;12.50;;;8.27;;
49840;SDS011;35738;49.890;5.930;2024-01-30T10:26:02;11.27;;;8.20;;
49840;SDS011;35738;49.890;5.930;2024-01-30T10:28:30;13.15;;;8.60;;
49840;SDS011;35738;49.890;5.930;2024-01-30T10:30:57;10.40;;;8.10;;
49840;SDS011;35738;49.890;5.930;2024-01-30T10:33:30;13.30;;;8.55;;
49840;SDS011;35738;49.890;5.930;2024-01-30T10:36:01;11.52;;;8.40;;
49840;SDS011;35738;49.890;5.930;2024-01-30T10:38:29;8.63;;;7.57;;
49840;SDS011;35738;49.890;5.930;2024-01-30T10:40:57;13.25;;;7.93;;
49840;SDS011;35738;49.890;5.930;2024-01-30T10:43:40;11.98;;;8.23;;
49840;SDS011;35738;49.890;5.930;2024-01-30T10:46:13;12.15;;;7.32;;
49840;SDS011;35738;49.890;5.930;2024-01-30T10:48:56;11.77;;;8.35;;
49840;SDS011;35738;49.890;5.930;2024-01-30T10:51:28;10.75;;;7.82;;
49840;SDS011;35738;49.890;5.930;2024-01-30T10:53:55;10.43;;;7.50;;
49840;SDS011;35738;49.890;5.930;2024-01-30T10:56:24;11.23;;;7.32;;
49840;SDS011;35738;49.890;5.930;2024-01-30T10:58:51;12.02;;;7.43;;
49840;SDS011;35738;49.890;5.930;2024-01-30T11:01:19;9.77;;;7.63;;
49840;SDS011;35738;49.890;5.930;2024-01-30T11:03:51;11.68;;;7.82;;
49840;SDS011;35738;49.890;5.930;2024-01-30T11:06:22;9.90;;;7.63;;
49840;SDS011;35738;49.890;5.930;2024-01-30T11:09:02;11.63;;;7.50;;
49840;SDS011;35738;49.890;5.930;2024-01-30T11:11:30;10.23;;;7.47;;
49840;SDS011;35738;49.890;5.930;2024-01-30T11:14:00;10.20;;;7.38;;
49840;SDS011;35738;49.890;5.930;2024-01-30T11:16:31;11.95;;;7.25;;
49840;SDS011;35738;49.890;5.930;2024-01-30T11:19:04;10.35;;;7.38;;
49840;SDS011;35738;49.890;5.930;2024-01-30T11:21:52;10.82;;;7.47;;
49840;SDS011;35738;49.890;5.930;2024-01-30T11:24:20;11.75;;;7.63;;
49840;SDS011;35738;49.890;5.930;2024-01-30T11:26:57;12.60;;;7.82;;
49840;SDS011;35738;49.890;5.930;2024-01-30T11:29:28;12.60;;;7.82;;
49840;SDS011;35738;49.890;5.930;2024-01-30T11:32:00;13.77;;;7.93;;
49840;SDS011;35738;49.890;5.930;2024-01-30T11:34:47;13.02;;;7.32;;
49840;SDS011;35738;49.890;5.930;2024-01-30T11:37:36;10.98;;;7.88;;
49840;SDS011;35738;49.890;5.930;2024-01-30T11:40:04;10.63;;;7.45;;
49840;SDS011;35738;49.890;5.930;2024-01-30T11:42:31;10.82;;;8.15;;
49840;SDS011;35738;49.890;5.930;2024-01-30T11:44:59;13.30;;;7.90;;
49840;SDS011;35738;49.890;5.930;2024-01-30T11:47:27;10.23;;;7.85;;
49840;SDS011;35738;49.890;5.930;2024-01-30T11:49:54;10.98;;;8.15;;
49840;SDS011;35738;49.890;5.930;2024-01-30T11:52:24;11.70;;;8.43;;
49840;SDS011;35738;49.890;5.930;2024-01-30T11:54:51;12.63;;;7.90;;
49840;SDS011;35738;49.890;5.930;2024-01-30T11:57:18;11.52;;;8.43;;
49840;SDS011;35738;49.890;5.930;2024-01-30T11:59:44;12.35;;;8.38;;
49840;SDS011;35738;49.890;5.930;2024-01-30T12:02:15;10.50;;;8.18;;
49840;SDS011;35738;49.890;5.930;2024-01-30T12:04:42;13.80;;;8.43;;
49840;SDS011;35738;49.890;5.930;2024-01-30T12:07:09;12.25;;;8.52;;
49840;SDS011;35738;49.890;5.930;2024-01-30T12:09:37;13.73;;;8.63;;
49840;SDS011;35738;49.890;5.930;2024-01-30T12:12:03;15.13;;;8.85;;
49840;SDS011;35738;49.890;5.930;2024-01-30T12:14:31;14.77;;;8.55;;
49840;SDS011;35738;49.890;5.930;2024-01-30T12:16:58;13.65;;;8.80;;
49840;SDS011;35738;49.890;5.930;2024-01-30T12:19:24;12.07;;;8.65;;
49840;SDS011;35738;49.890;5.930;2024-01-30T12:21:55;13.23;;;8.77;;
49840;SDS011;35738;49.890;5.930;2024-01-30T12:24:25;15.00;;;8.85;;
49840;SDS011;35738;49.890;5.930;2024-01-30T12:26:56;16.20;;;9.18;;
49840;SDS011;35738;49.890;5.930;2024-01-30T12:29:24;13.00;;;8.95;;
49840;SDS011;35738;49.890;5.930;2024-01-30T12:31:53;15.93;;;9.57;;
49840;SDS011;35738;49.890;5.930;2024-01-30T12:34:21;14.93;;;9.38;;
49840;SDS011;35738;49.890;5.930;2024-01-30T12:36:47;17.90;;;9.55;;
49840;SDS011;35738;49.890;5.930;2024-01-30T12:39:15;17.15;;;10.32;;
49840;SDS011;35738;49.890;5.930;2024-01-30T12:41:42;16.90;;;9.88;;
49840;SDS011;35738;49.890;5.930;2024-01-30T12:44:08;18.70;;;10.77;;
49840;SDS011;35738;49.890;5.930;2024-01-30T12:46:35;15.65;;;9.57;;
49840;SDS011;35738;49.890;5.930;2024-01-30T12:49:02;15.70;;;9.77;;
49840;SDS011;35738;49.890;5.930;2024-01-30T12:51:29;18.00;;;10.07;;
49840;SDS011;35738;49.890;5.930;2024-01-30T12:53:55;15.95;;;9.85;;
49840;SDS011;35738;49.890;5.930;2024-01-30T12:56:22;15.38;;;10.13;;
49840;SDS011;35738;49.890;5.930;2024-01-30T12:58:48;18.27;;;10.90;;
49840;SDS011;35738;49.890;5.930;2024-01-30T13:01:19;17.85;;;10.68;;
49840;SDS011;35738;49.890;5.930;2024-01-30T13:03:45;19.92;;;9.98;;
49840;SDS011;35738;49.890;5.930;2024-01-30T13:06:13;17.20;;;10.45;;
49840;SDS011;35738;49.890;5.930;2024-01-30T13:08:39;18.48;;;9.93;;
49840;SDS011;35738;49.890;5.930;2024-01-30T13:11:06;19.20;;;9.93;;
49840;SDS011;35738;49.890;5.930;2024-01-30T13:13:42;14.23;;;9.38;;
49840;SDS011;35738;49.890;5.930;2024-01-30T13:16:09;17.40;;;9.75;;
49840;SDS011;35738;49.890;5.930;2024-01-30T13:18:36;15.10;;;9.60;;
49840;SDS011;35738;49.890;5.930;2024-01-30T13:21:03;16.70;;;9.45;;
49840;SDS011;35738;49.890;5.930;2024-01-30T13:23:29;16.15;;;9.38;;
49840;SDS011;35738;49.890;5.930;2024-01-30T13:25:56;14.25;;;8.95;;
49840;SDS011;35738;49.890;5.930;2024-01-30T13:28:25;17.73;;;8.60;;
49840;SDS011;35738;49.890;5.930;2024-01-30T13:30:52;17.13;;;9.20;;
49840;SDS011;35738;49.890;5.930;2024-01-30T13:33:18;13.85;;;8.98;;
49840;SDS011;35738;49.890;5.930;2024-01-30T13:35:45;15.45;;;8.85;;
49840;SDS011;35738;49.890;5.930;2024-01-30T13:38:12;15.18;;;8.23;;
49840;SDS011;35738;49.890;5.930;2024-01-30T13:40:40;17.38;;;8.30;;
49840;SDS011;35738;49.890;5.930;2024-01-30T13:43:08;15.60;;;8.40;;
49840;SDS011;35738;49.890;5.930;2024-01-30T13:45:34;13.38;;;7.95;;
49840;SDS011;35738;49.890;5.930;2024-01-30T13:48:01;14.00;;;8.00;;
49840;SDS011;35738;49.890;5.930;2024-01-30T13:50:29;12.15;;;7.78;;
49840;SDS011;35738;49.890;5.930;2024-01-30T13:52:56;14.35;;;8.50;;
49840;SDS011;35738;49.890;5.930;2024-01-30T13:55:26;13.77;;;8.68;;
49840;SDS011;35738;49.890;5.930;2024-01-30T13:57:52;14.77;;;8.43;;
49840;SDS011;35738;49.890;5.930;2024-01-30T14:00:19;12.15;;;7.68;;
49840;SDS011;35738;49.890;5.930;2024-01-30T14:02:48;12.25;;;8.07;;
49840;SDS011;35738;49.890;5.930;2024-01-30T14:05:15;12.13;;;7.47;;
49840;SDS011;35738;49.890;5.930;2024-01-30T14:07:42;10.95;;;7.90;;
49840;SDS011;35738;49.890;5.930;2024-01-30T14:10:09;11.57;;;7.57;;
49840;SDS011;35738;49.890;5.930;2024-01-30T14:12:41;16.17;;;10.50;;
49840;SDS011;35738;49.890;5.930;2024-01-30T14:15:09;10.98;;;7.95;;
49840;SDS011;35738;49.890;5.930;2024-01-30T14:17:52;12.77;;;8.07;;
49840;SDS011;35738;49.890;5.930;2024-01-30T14:20:19;13.32;;;8.00;;
49840;SDS011;35738;49.890;5.930;2024-01-30T14:22:46;15.15;;;8.45;;
49840;SDS011;35738;49.890;5.930;2024-01-30T14:25:12;13.40;;;7.97;;
49840;SDS011;35738;49.890;5.930;2024-01-30T14:27:39;11.50;;;8.18;;